createdAt,value
2022-09-12T00:00:45.884Z,14.83
2022-09-12T00:03:19.526Z,15.40
2022-09-12T00:05:51.139Z,15.57
2022-09-12T00:08:18.185Z,15.90
2022-09-12T00:10:45.497Z,16.17
2022-09-12T00:13:15.699Z,15.90
2022-09-12T00:15:44.759Z,16.10
2022-09-12T00:18:15.456Z,15.97
2022-09-12T00:20:47.132Z,16.27
2022-09-12T00:23:15.070Z,15.67
2022-09-12T00:25:46.003Z,16.50
2022-09-12T00:28:14.892Z,17.13
2022-09-12T00:30:43.135Z,17.90
2022-09-12T00:33:12.760Z,17.13
2022-09-12T00:35:53.016Z,16.37
2022-09-12T00:38:20.625Z,16.20
2022-09-12T00:40:48.571Z,15.17
2022-09-12T00:43:35.062Z,17.17
2022-09-12T00:46:30.540Z,17.13
2022-09-12T00:49:03.689Z,16.97
2022-09-12T00:51:33.183Z,17.07
2022-09-12T00:54:09.548Z,17.53
2022-09-12T00:56:39.079Z,19.37
2022-09-12T00:59:18.053Z,16.40
2022-09-12T01:01:48.192Z,17.30
2022-09-12T01:04:16.359Z,16.70
2022-09-12T01:06:48.348Z,17.33
2022-09-12T01:09:21.823Z,16.00
2022-09-12T01:11:50.348Z,18.53
2022-09-12T01:14:19.132Z,17.30
2022-09-12T01:16:47.444Z,17.40
2022-09-12T01:19:58.148Z,17.90
2022-09-12T01:22:55.043Z,16.93
2022-09-12T01:26:00.773Z,18.13
2022-09-12T01:28:54.979Z,17.43
2022-09-12T01:31:44.977Z,17.73
2022-09-12T01:34:36.921Z,16.37
2022-09-12T01:37:09.427Z,17.37
2022-09-12T01:39:36.297Z,16.90
2022-09-12T01:42:13.128Z,16.90
2022-09-12T01:44:46.912Z,17.13
2022-09-12T01:47:27.824Z,17.57
2022-09-12T01:50:08.356Z,18.43
2022-09-12T01:53:04.098Z,17.87
2022-09-12T01:55:44.199Z,16.50
2022-09-12T01:58:43.601Z,17.67
2022-09-12T02:04:23.887Z,17.53
2022-09-12T02:07:04.602Z,17.67
2022-09-12T02:09:52.300Z,17.67
2022-09-12T02:12:24.796Z,17.97
2022-09-12T02:15:02.343Z,17.93
2022-09-12T02:17:35.127Z,17.23
2022-09-12T02:20:08.899Z,17.17
2022-09-12T02:22:37.897Z,17.27
2022-09-12T02:25:09.140Z,17.47
2022-09-12T02:27:41.292Z,16.77
2022-09-12T02:30:09.360Z,17.27
2022-09-12T02:32:46.745Z,18.30
2022-09-12T02:35:36.739Z,18.20
2022-09-12T02:38:25.060Z,17.50
2022-09-12T02:40:52.290Z,16.33
2022-09-12T02:43:19.146Z,16.70
2022-09-12T02:45:46.208Z,17.47
2022-09-12T02:48:18.753Z,17.67
2022-09-12T02:50:46.362Z,17.00
2022-09-12T02:53:13.531Z,17.77
2022-09-12T02:55:42.014Z,17.60
2022-09-12T02:58:17.376Z,17.67
2022-09-12T03:01:07.222Z,16.73
2022-09-12T03:04:11.372Z,17.57
2022-09-12T03:06:50.096Z,16.17
2022-09-12T03:09:33.525Z,15.80
2022-09-12T03:12:08.866Z,18.03
2022-09-12T03:14:53.663Z,17.80
2022-09-12T03:17:45.075Z,17.60
2022-09-12T03:20:19.465Z,18.27
2022-09-12T03:22:57.365Z,18.07
2022-09-12T03:25:44.573Z,17.23
2022-09-12T03:28:17.367Z,19.07
2022-09-12T03:30:45.953Z,16.93
2022-09-12T03:33:15.181Z,17.60
2022-09-12T03:35:42.602Z,18.07
2022-09-12T03:38:09.913Z,18.00
2022-09-12T03:40:38.287Z,18.27
2022-09-12T03:43:07.946Z,19.63
2022-09-12T03:45:35.754Z,17.30
2022-09-12T03:48:02.845Z,18.13
2022-09-12T03:50:29.641Z,18.13
2022-09-12T03:52:59.672Z,19.13
2022-09-12T03:55:26.745Z,17.00
2022-09-12T03:57:54.991Z,18.83
2022-09-12T04:00:21.933Z,18.20
2022-09-12T04:02:48.860Z,18.13
2022-09-12T04:05:15.914Z,18.03
2022-09-12T04:07:42.734Z,17.73
2022-09-12T04:10:09.884Z,17.60
2022-09-12T04:12:36.952Z,17.97
2022-09-12T04:15:03.948Z,17.87
2022-09-12T04:17:30.760Z,18.63
2022-09-12T04:19:57.591Z,18.17
2022-09-12T04:22:24.483Z,17.67
2022-09-12T04:24:51.305Z,18.70
2022-09-12T04:27:18.411Z,17.53
2022-09-12T04:29:45.156Z,18.77
2022-09-12T04:32:12.200Z,17.67
2022-09-12T04:34:39.252Z,17.33
2022-09-12T04:37:06.150Z,18.70
2022-09-12T04:39:32.880Z,17.53
2022-09-12T04:41:59.749Z,17.67
2022-09-12T04:44:26.508Z,18.90
2022-09-12T04:46:53.289Z,17.70
2022-09-12T04:49:20.024Z,18.73
2022-09-12T04:51:47.206Z,19.23
2022-09-12T04:54:19.406Z,17.97
2022-09-12T04:56:48.977Z,18.20
2022-09-12T04:59:17.558Z,17.77
2022-09-12T05:01:44.423Z,18.83
2022-09-12T05:04:13.103Z,19.53
2022-09-12T05:06:41.403Z,19.07
2022-09-12T05:09:11.677Z,18.90
2022-09-12T05:12:03.729Z,18.17
2022-09-12T05:14:27.063Z,18.70
2022-09-12T05:16:53.942Z,17.43
2022-09-12T05:19:20.862Z,17.37
2022-09-12T05:21:47.693Z,18.33
2022-09-12T05:24:14.473Z,18.70
2022-09-12T05:26:41.293Z,18.27
2022-09-12T05:29:08.240Z,19.37
2022-09-12T05:31:35.723Z,18.10
2022-09-12T05:34:10.382Z,19.23
2022-09-12T05:36:37.657Z,18.47
2022-09-12T05:39:04.809Z,18.57
2022-09-12T05:41:33.558Z,18.50
2022-09-12T05:44:02.786Z,17.30
2022-09-12T05:46:51.435Z,18.50
2022-09-12T05:49:18.291Z,18.17
2022-09-12T05:51:45.969Z,19.43
2022-09-12T05:54:15.162Z,17.93
2022-09-12T05:56:43.924Z,18.13
2022-09-12T05:59:16.427Z,18.30
2022-09-12T06:01:44.651Z,18.97
2022-09-12T06:04:12.147Z,17.60
2022-09-12T06:06:46.931Z,18.27
2022-09-12T06:09:16.114Z,18.50
2022-09-12T06:11:44.061Z,17.10
2022-09-12T06:14:12.977Z,18.33
2022-09-12T06:16:40.570Z,17.87
2022-09-12T06:19:14.075Z,18.50
2022-09-12T06:21:40.928Z,19.20
2022-09-12T06:24:07.845Z,17.70
2022-09-12T06:26:35.161Z,18.30
2022-09-12T06:29:03.034Z,18.93
2022-09-12T06:31:37.391Z,19.33
2022-09-12T06:34:06.510Z,18.83
2022-09-12T06:36:37.063Z,19.13
2022-09-12T06:39:10.978Z,18.20
2022-09-12T06:41:43.523Z,17.53
2022-09-12T06:44:19.816Z,17.43
2022-09-12T06:46:47.203Z,18.40
2022-09-12T06:49:14.225Z,18.70
2022-09-12T06:51:44.679Z,20.23
2022-09-12T06:54:16.866Z,18.03
2022-09-12T06:56:44.682Z,19.57
2022-09-12T06:59:11.568Z,16.37
2022-09-12T07:01:40.166Z,16.13
2022-09-12T07:04:07.316Z,16.20
2022-09-12T07:06:44.626Z,16.43
2022-09-12T07:09:16.119Z,16.87
2022-09-12T07:11:43.646Z,17.80
2022-09-12T07:14:13.889Z,17.30
2022-09-12T07:16:41.454Z,15.60
2022-09-12T07:19:09.456Z,16.40
2022-09-12T07:21:40.046Z,16.50
2022-09-12T07:24:09.516Z,15.30
2022-09-12T07:26:36.522Z,15.90
2022-09-12T07:29:25.569Z,16.57
2022-09-12T07:31:50.137Z,17.23
2022-09-12T07:34:17.455Z,16.20
2022-09-12T07:36:44.180Z,16.50
2022-09-12T07:39:11.181Z,16.53
2022-09-12T07:41:38.070Z,15.77
2022-09-12T07:44:07.053Z,16.83
2022-09-12T07:46:35.002Z,14.93
2022-09-12T07:49:02.328Z,16.63
2022-09-12T07:51:31.258Z,15.00
2022-09-12T07:53:58.795Z,15.83
2022-09-12T07:56:30.220Z,15.63
2022-09-12T07:58:58.956Z,16.50
2022-09-12T08:01:26.340Z,15.13
2022-09-12T08:03:58.269Z,14.07
2022-09-12T08:06:27.067Z,14.23
2022-09-12T08:08:56.261Z,13.20
2022-09-12T08:11:24.348Z,12.93
2022-09-12T08:13:55.600Z,13.50
2022-09-12T08:16:25.297Z,12.73
2022-09-12T08:18:52.203Z,12.93
2022-09-12T08:21:24.372Z,12.37
2022-09-12T08:24:00.879Z,11.57
2022-09-12T08:26:28.320Z,11.53
2022-09-12T08:28:55.399Z,11.80
2022-09-12T08:31:30.613Z,11.63
2022-09-12T08:34:00.472Z,11.47
2022-09-12T08:36:29.642Z,12.03
2022-09-12T08:39:00.400Z,11.23
2022-09-12T08:41:42.523Z,11.43
2022-09-12T08:44:18.439Z,11.40
2022-09-12T08:47:12.940Z,11.53
2022-09-12T08:49:54.725Z,11.83
2022-09-12T08:52:26.454Z,10.80
2022-09-12T08:54:55.927Z,12.07
2022-09-12T08:57:26.927Z,11.07
2022-09-12T08:59:54.426Z,11.00
2022-09-12T09:02:42.222Z,10.93
2022-09-12T09:05:40.398Z,9.40
2022-09-12T09:08:13.302Z,9.63
2022-09-12T09:10:51.965Z,9.57
2022-09-12T09:13:50.601Z,9.40
2022-09-12T09:16:25.568Z,10.07
2022-09-12T09:18:57.293Z,10.33
2022-09-12T09:21:30.176Z,10.60
2022-09-12T09:24:05.828Z,10.37
2022-09-12T09:27:36.983Z,9.53
2022-09-12T09:29:58.392Z,9.67
2022-09-12T09:32:33.822Z,9.70
2022-09-12T09:35:02.865Z,8.50
2022-09-12T09:37:42.287Z,8.77
2022-09-12T09:40:15.683Z,8.47
2022-09-12T09:43:00.927Z,8.30
2022-09-12T09:45:29.358Z,7.40
2022-09-12T09:48:19.326Z,7.13
2022-09-12T09:50:48.292Z,7.30
2022-09-12T09:53:36.973Z,7.23
2022-09-12T09:56:26.920Z,7.70
2022-09-12T09:58:53.786Z,6.40
2022-09-12T10:01:21.209Z,6.63
2022-09-12T10:03:53.726Z,6.20
2022-09-12T10:06:23.370Z,6.83
2022-09-12T10:08:50.835Z,7.53
2022-09-12T10:11:23.174Z,7.77
2022-09-12T10:13:58.306Z,6.17
2022-09-12T10:16:33.587Z,5.73
2022-09-12T10:19:02.977Z,5.70
2022-09-12T10:21:41.602Z,5.10
2022-09-12T10:24:26.548Z,5.30
2022-09-12T10:27:07.057Z,5.67
2022-09-12T10:29:39.585Z,5.43
2022-09-12T10:32:09.134Z,5.37
2022-09-12T10:34:42.170Z,6.30
2022-09-12T10:37:16.142Z,6.53
2022-09-12T10:39:53.276Z,6.07
2022-09-12T10:42:45.961Z,6.40
2022-09-12T10:45:35.594Z,5.90
2022-09-12T10:48:22.677Z,6.53
2022-09-12T10:50:49.421Z,5.80
2022-09-12T10:53:31.118Z,6.40
2022-09-12T10:56:14.374Z,5.80
2022-09-12T10:59:19.408Z,5.97
2022-09-12T11:01:50.637Z,5.57
2022-09-12T11:04:49.736Z,5.53
2022-09-12T11:07:37.957Z,6.57
2022-09-12T11:10:27.087Z,5.97
2022-09-12T11:13:07.012Z,4.50
2022-09-12T11:16:11.539Z,4.30
2022-09-12T11:18:38.277Z,3.90
2022-09-12T11:21:13.548Z,3.90
2022-09-12T11:24:00.355Z,3.37
2022-09-12T11:26:53.719Z,3.63
2022-09-12T11:29:31.143Z,3.83
2022-09-12T11:32:04.097Z,3.40
2022-09-12T11:34:47.504Z,3.90
2022-09-12T11:37:55.846Z,2.97
2022-09-12T11:40:37.937Z,2.70
2022-09-12T11:43:49.383Z,2.80
2022-09-12T11:46:38.887Z,2.90
2022-09-12T11:49:14.339Z,2.87
2022-09-12T11:51:41.052Z,3.30
2022-09-12T11:54:20.170Z,7.13
2022-09-12T11:56:49.915Z,3.23
2022-09-12T11:59:54.400Z,3.13
2022-09-12T12:02:36.826Z,3.17
2022-09-12T12:05:21.676Z,2.80
2022-09-12T12:07:57.503Z,3.00
2022-09-12T12:10:33.967Z,3.13
2022-09-12T12:13:05.489Z,2.63
2022-09-12T12:15:34.522Z,2.57
2022-09-12T12:18:07.788Z,2.30
2022-09-12T12:20:35.138Z,2.33
2022-09-12T12:23:02.231Z,2.43
2022-09-12T12:25:53.163Z,2.67
2022-09-12T12:28:41.825Z,2.22
2022-09-12T12:31:10.535Z,2.75
2022-09-12T12:33:37.304Z,2.33
2022-09-12T12:36:08.027Z,3.10
2022-09-12T12:38:39.850Z,2.30
2022-09-12T12:41:18.826Z,2.30
2022-09-12T12:43:51.015Z,1.77
2022-09-12T12:46:29.443Z,1.80
2022-09-12T12:49:18.612Z,1.88
2022-09-12T12:51:56.720Z,1.77
2022-09-12T12:54:46.703Z,2.30
2022-09-12T12:57:13.464Z,2.25
2022-09-12T13:00:21.335Z,2.58
2022-09-12T13:03:06.659Z,1.90
2022-09-12T13:05:47.260Z,2.30
2022-09-12T13:08:16.981Z,2.60
2022-09-12T13:11:00.338Z,2.17
2022-09-12T13:13:46.001Z,2.40
2022-09-12T13:16:36.491Z,1.83
2022-09-12T13:19:18.121Z,1.90
2022-09-12T13:22:01.008Z,1.92
2022-09-12T13:24:28.205Z,1.80
2022-09-12T13:26:55.295Z,2.00
2022-09-12T13:29:24.420Z,1.50
2022-09-12T13:32:00.750Z,1.80
2022-09-12T13:34:33.954Z,1.60
2022-09-12T13:37:04.875Z,1.90
2022-09-12T13:39:41.346Z,1.48
2022-09-12T13:42:38.332Z,1.67
2022-09-12T13:45:14.407Z,2.15
2022-09-12T13:47:45.999Z,1.58
2022-09-12T13:50:23.796Z,1.37
2022-09-12T13:53:00.547Z,1.83
2022-09-12T13:55:37.099Z,1.50
2022-09-12T13:58:17.302Z,1.40
2022-09-12T14:00:45.014Z,1.20
2022-09-12T14:03:49.201Z,1.50
2022-09-12T14:06:18.285Z,1.60
2022-09-12T14:08:47.687Z,1.97
2022-09-12T14:11:29.503Z,1.60
2022-09-12T14:13:57.432Z,1.33
2022-09-12T14:16:27.379Z,1.75
2022-09-12T14:18:54.590Z,1.65
2022-09-12T14:21:36.233Z,1.60
2022-09-12T14:24:05.807Z,1.92
2022-09-12T14:26:38.682Z,1.55
2022-09-12T14:29:07.251Z,1.80
2022-09-12T14:31:38.480Z,1.70
2022-09-12T14:34:19.527Z,2.10
2022-09-12T14:36:52.740Z,1.40
2022-09-12T14:39:41.624Z,1.50
2022-09-12T14:42:17.358Z,1.77
2022-09-12T14:44:56.503Z,1.90
2022-09-12T14:47:27.303Z,1.70
2022-09-12T14:49:54.704Z,1.70
2022-09-12T14:52:33.106Z,2.10
2022-09-12T14:55:20.839Z,2.05
2022-09-12T14:57:47.987Z,1.90
2022-09-12T15:00:22.451Z,1.70
2022-09-12T15:02:51.041Z,2.07
2022-09-12T15:05:21.279Z,1.83
2022-09-12T15:07:51.236Z,1.83
2022-09-12T15:10:36.841Z,2.10
2022-09-12T15:13:18.930Z,2.27
2022-09-12T15:15:51.730Z,1.83
2022-09-12T15:18:19.963Z,2.17
2022-09-12T15:20:49.961Z,1.80
2022-09-12T15:23:34.959Z,1.67
2022-09-12T15:26:02.418Z,1.70
2022-09-12T15:28:31.253Z,1.97
2022-09-12T15:31:04.928Z,1.77
2022-09-12T15:33:31.761Z,1.70
2022-09-12T15:35:58.524Z,2.17
2022-09-12T15:38:26.693Z,1.90
2022-09-12T15:40:54.583Z,1.60
2022-09-12T15:43:23.243Z,1.80
2022-09-12T15:45:51.800Z,2.57
2022-09-12T15:48:19.473Z,2.00
2022-09-12T15:50:46.306Z,1.57
2022-09-12T15:53:16.732Z,1.77
2022-09-12T15:55:44.612Z,2.07
2022-09-12T15:58:11.933Z,1.80
2022-09-12T16:00:39.177Z,1.63
2022-09-12T16:03:06.078Z,1.90
2022-09-12T16:05:33.223Z,1.90
2022-09-12T16:08:00.036Z,1.67
2022-09-12T16:10:30.309Z,1.57
2022-09-12T16:12:57.591Z,1.57
2022-09-12T16:15:25.685Z,1.43
2022-09-12T16:17:53.017Z,1.97
2022-09-12T16:20:20.881Z,2.20
2022-09-12T16:22:48.294Z,2.10
2022-09-12T16:25:15.200Z,1.70
2022-09-12T16:27:42.359Z,1.73
2022-09-12T16:30:10.148Z,1.77
2022-09-12T16:32:36.991Z,1.70
2022-09-12T16:35:04.208Z,1.80
2022-09-12T16:37:32.290Z,1.80
2022-09-12T16:39:59.210Z,1.60
2022-09-12T16:42:26.141Z,1.73
2022-09-12T16:44:53.180Z,1.57
2022-09-12T16:47:20.018Z,2.00
2022-09-12T16:49:46.725Z,1.80
2022-09-12T16:52:16.537Z,1.80
2022-09-12T16:54:46.189Z,1.80
2022-09-12T16:57:13.063Z,1.60
2022-09-12T16:59:39.853Z,2.00
2022-09-12T17:02:07.587Z,2.00
2022-09-12T17:04:34.426Z,1.93
2022-09-12T17:07:01.173Z,2.33
2022-09-12T17:09:29.352Z,3.20
2022-09-12T17:11:57.206Z,2.40
2022-09-12T17:14:24.556Z,2.33
2022-09-12T17:16:52.214Z,1.80
2022-09-12T17:19:26.744Z,1.67
2022-09-12T17:21:54.363Z,1.90
2022-09-12T17:24:21.542Z,2.07
2022-09-12T17:26:49.033Z,2.67
2022-09-12T17:29:16.733Z,3.70
2022-09-12T17:31:44.941Z,3.77
2022-09-12T17:34:16.302Z,3.07
2022-09-12T17:36:44.445Z,3.00
2022-09-12T17:39:13.078Z,4.10
2022-09-12T17:41:41.758Z,2.97
2022-09-12T17:44:11.384Z,3.73
2022-09-12T17:46:38.882Z,2.37
2022-09-12T17:49:08.801Z,2.80
2022-09-12T17:51:35.904Z,2.53
2022-09-12T17:54:06.872Z,2.67
2022-09-12T17:56:35.228Z,2.30
2022-09-12T17:59:02.941Z,2.03
2022-09-12T18:01:48.862Z,2.00
2022-09-12T18:04:16.391Z,1.47
2022-09-12T18:06:48.143Z,2.30
2022-09-12T18:09:20.883Z,2.33
2022-09-12T18:11:48.833Z,4.80
2022-09-12T18:14:17.234Z,5.60
2022-09-12T18:16:45.079Z,5.70
2022-09-12T18:19:12.429Z,4.90
2022-09-12T18:21:39.488Z,4.40
2022-09-12T18:24:06.578Z,3.80
2022-09-12T18:26:33.864Z,2.97
2022-09-12T18:29:00.831Z,2.03
2022-09-12T18:31:29.941Z,2.13
2022-09-12T18:33:59.827Z,2.40
2022-09-12T18:36:27.618Z,2.10
2022-09-12T18:38:54.389Z,2.17
2022-09-12T18:41:23.143Z,2.03
2022-09-12T18:43:55.495Z,1.90
2022-09-12T18:46:22.774Z,2.40
2022-09-12T18:48:49.903Z,2.50
2022-09-12T18:51:25.885Z,2.23
2022-09-12T18:53:56.093Z,3.33
2022-09-12T18:56:25.313Z,3.37
2022-09-12T18:58:57.530Z,3.47
2022-09-12T19:01:26.808Z,4.07
2022-09-12T19:03:54.277Z,4.40
2022-09-12T19:06:23.771Z,5.53
2022-09-12T19:08:52.233Z,5.87
2022-09-12T19:11:20.651Z,6.53
2022-09-12T19:13:50.860Z,4.00
2022-09-12T19:16:20.813Z,2.40
2022-09-12T19:18:49.924Z,2.17
2022-09-12T19:21:24.716Z,2.60
2022-09-12T19:23:52.901Z,2.37
2022-09-12T19:26:21.282Z,6.97
2022-09-12T19:28:48.538Z,6.90
2022-09-12T19:31:19.054Z,8.67
2022-09-12T19:33:47.016Z,13.37
2022-09-12T19:36:40.808Z,13.47
2022-09-12T19:39:04.879Z,7.53
2022-09-12T19:41:31.862Z,5.43
2022-09-12T19:43:58.995Z,7.33
2022-09-12T19:46:26.519Z,8.90
2022-09-12T19:48:53.940Z,7.27
2022-09-12T19:51:21.770Z,5.40
2022-09-12T19:53:50.230Z,4.73
2022-09-12T19:56:17.269Z,4.33
2022-09-12T19:58:46.653Z,3.80
2022-09-12T20:01:17.079Z,4.23
2022-09-12T20:03:44.968Z,4.33
2022-09-12T20:06:14.408Z,3.60
2022-09-12T20:08:42.386Z,3.10
2022-09-12T20:11:11.097Z,3.53
2022-09-12T20:13:38.579Z,3.43
2022-09-12T20:16:10.571Z,3.20
2022-09-12T20:18:40.611Z,3.50
2022-09-12T20:21:19.051Z,4.20
2022-09-12T20:23:46.655Z,4.63
2022-09-12T20:26:13.939Z,4.70
2022-09-12T20:28:41.659Z,7.47
2022-09-12T20:31:14.212Z,6.27
2022-09-12T20:33:41.205Z,5.83
2022-09-12T20:36:17.314Z,6.93
2022-09-12T20:39:03.369Z,7.30
2022-09-12T20:41:32.399Z,6.20
2022-09-12T20:43:59.462Z,6.10
2022-09-12T20:46:27.849Z,5.77
2022-09-12T20:48:55.125Z,5.83
2022-09-12T20:51:23.025Z,4.67
2022-09-12T20:53:54.531Z,4.10
2022-09-12T20:56:22.580Z,3.40
2022-09-12T20:58:49.924Z,3.03
2022-09-12T21:01:17.268Z,2.87
2022-09-12T21:03:44.768Z,2.90
2022-09-12T21:06:12.720Z,2.70
2022-09-12T21:08:39.539Z,3.17
2022-09-12T21:11:07.216Z,3.43
2022-09-12T21:13:34.299Z,3.00
2022-09-12T21:16:03.356Z,2.90
2022-09-12T21:18:31.887Z,3.03
2022-09-12T21:20:59.124Z,2.93
2022-09-12T21:23:27.337Z,3.27
2022-09-12T21:25:54.904Z,2.87
2022-09-12T21:28:22.179Z,3.30
2022-09-12T21:30:49.805Z,3.07
2022-09-12T21:33:18.316Z,2.80
2022-09-12T21:35:45.870Z,3.27
2022-09-12T21:38:12.911Z,2.80
2022-09-12T21:40:39.704Z,2.70
2022-09-12T21:43:11.841Z,2.80
2022-09-12T21:45:39.491Z,2.77
2022-09-12T21:48:06.223Z,2.70
2022-09-12T21:50:33.137Z,2.47
2022-09-12T21:52:59.938Z,3.17
2022-09-12T21:55:27.316Z,3.57
2022-09-12T21:57:57.054Z,3.13
2022-09-12T22:00:24.280Z,2.90
2022-09-12T22:02:51.078Z,3.50
2022-09-12T22:05:19.693Z,3.17
2022-09-12T22:07:46.782Z,3.27
2022-09-12T22:10:13.662Z,3.40
2022-09-12T22:12:45.367Z,3.30
2022-09-12T22:15:38.747Z,3.37
2022-09-12T22:18:00.548Z,3.13
2022-09-12T22:20:27.342Z,3.00
2022-09-12T22:23:12.772Z,3.20
2022-09-12T22:25:39.819Z,3.37
2022-09-12T22:28:07.069Z,3.37
2022-09-12T22:30:33.828Z,3.40
2022-09-12T22:33:00.519Z,3.67
2022-09-12T22:35:37.065Z,3.27
2022-09-12T22:38:04.976Z,3.80
2022-09-12T22:40:32.082Z,3.30
2022-09-12T22:42:58.812Z,2.80
2022-09-12T22:45:25.792Z,3.30
2022-09-12T22:47:52.621Z,3.53
2022-09-12T22:50:19.393Z,3.33
2022-09-12T22:52:46.142Z,3.17
2022-09-12T22:55:13.180Z,3.70
2022-09-12T22:57:39.958Z,3.50
2022-09-12T23:00:10.400Z,3.67
2022-09-12T23:02:37.937Z,3.30
2022-09-12T23:05:04.963Z,2.90
2022-09-12T23:07:32.444Z,3.50
2022-09-12T23:09:59.261Z,3.90
2022-09-12T23:12:26.310Z,3.37
2022-09-12T23:14:53.174Z,3.77
2022-09-12T23:17:19.915Z,3.60
2022-09-12T23:19:46.644Z,4.07
2022-09-12T23:22:13.391Z,3.70
2022-09-12T23:24:40.197Z,4.03
2022-09-12T23:27:07.066Z,3.53
2022-09-12T23:29:35.380Z,3.77
2022-09-12T23:32:05.746Z,3.93
2022-09-12T23:34:34.023Z,4.00
2022-09-12T23:37:00.948Z,3.73
2022-09-12T23:39:27.993Z,4.33
2022-09-12T23:41:55.060Z,4.20
2022-09-12T23:44:21.903Z,3.57
2022-09-12T23:46:48.745Z,4.00
2022-09-12T23:49:15.608Z,4.10
2022-09-12T23:51:42.405Z,4.37
2022-09-12T23:54:09.097Z,4.03
2022-09-12T23:56:35.881Z,4.17
2022-09-12T23:59:02.728Z,4.17
